sensor_id;sensor_type;location;lat;lon;timestamp;temperature;humidity
45807;DHT22;31507;51.494;7.518;2023-03-05T00:01:27;3.40;99.90
45807;DHT22;31507;51.494;7.518;2023-03-05T00:03:55;3.40;99.90
45807;DHT22;31507;51.494;7.518;2023-03-05T00:06:22;3.40;99.90
45807;DHT22;31507;51.494;7.518;2023-03-05T00:08:49;3.40;99.90
45807;DHT22;31507;51.494;7.518;2023-03-05T00:11:16;3.40;99.90
45807;DHT22;31507;51.494;7.518;2023-03-05T00:13:41;3.40;99.90
45807;DHT22;31507;51.494;7.518;2023-03-05T00:16:10;3.40;99.90
45807;DHT22;31507;51.494;7.518;2023-03-05T00:18:36;3.40;99.90
45807;DHT22;31507;51.494;7.518;2023-03-05T00:21:03;3.30;99.90
45807;DHT22;31507;51.494;7.518;2023-03-05T00:23:28;3.30;99.90
45807;DHT22;31507;51.494;7.518;2023-03-05T00:25:54;3.30;99.90
45807;DHT22;31507;51.494;7.518;2023-03-05T00:28:20;3.30;99.90
45807;DHT22;31507;51.494;7.518;2023-03-05T00:30:45;3.30;99.90
45807;DHT22;31507;51.494;7.518;2023-03-05T00:33:12;3.30;99.90
45807;DHT22;31507;51.494;7.518;2023-03-05T00:35:43;3.30;99.90
45807;DHT22;31507;51.494;7.518;2023-03-05T00:38:10;3.30;99.90
45807;DHT22;31507;51.494;7.518;2023-03-05T00:40:37;3.30;99.90
45807;DHT22;31507;51.494;7.518;2023-03-05T00:43:03;3.30;99.90
45807;DHT22;31507;51.494;7.518;2023-03-05T00:45:29;3.30;99.90
45807;DHT22;31507;51.494;7.518;2023-03-05T00:47:55;3.30;99.90
45807;DHT22;31507;51.494;7.518;2023-03-05T00:50:21;3.30;99.90
45807;DHT22;31507;51.494;7.518;2023-03-05T00:52:46;3.40;99.90
45807;DHT22;31507;51.494;7.518;2023-03-05T00:55:12;3.30;99.90
45807;DHT22;31507;51.494;7.518;2023-03-05T00:57:37;3.30;99.90
45807;DHT22;31507;51.494;7.518;2023-03-05T01:00:04;3.30;99.90
45807;DHT22;31507;51.494;7.518;2023-03-05T01:02:30;3.30;99.90
45807;DHT22;31507;51.494;7.518;2023-03-05T01:04:56;3.30;99.90
45807;DHT22;31507;51.494;7.518;2023-03-05T01:07:21;3.30;99.90
45807;DHT22;31507;51.494;7.518;2023-03-05T01:09:47;3.30;99.90
45807;DHT22;31507;51.494;7.518;2023-03-05T01:12:13;3.20;99.90
45807;DHT22;31507;51.494;7.518;2023-03-05T01:14:38;3.10;99.90
45807;DHT22;31507;51.494;7.518;2023-03-05T01:17:04;2.90;99.90
45807;DHT22;31507;51.494;7.518;2023-03-05T01:19:30;2.80;99.90
45807;DHT22;31507;51.494;7.518;2023-03-05T01:21:56;2.70;99.90
45807;DHT22;31507;51.494;7.518;2023-03-05T01:24:22;2.60;99.90
45807;DHT22;31507;51.494;7.518;2023-03-05T01:26:47;2.60;99.90
45807;DHT22;31507;51.494;7.518;2023-03-05T01:29:14;2.60;99.90
45807;DHT22;31507;51.494;7.518;2023-03-05T01:31:39;2.60;99.90
45807;DHT22;31507;51.494;7.518;2023-03-05T01:34:05;2.50;99.90
45807;DHT22;31507;51.494;7.518;2023-03-05T01:36:31;2.50;99.90
45807;DHT22;31507;51.494;7.518;2023-03-05T01:38:56;2.50;99.90
45807;DHT22;31507;51.494;7.518;2023-03-05T01:41:22;2.40;99.90
45807;DHT22;31507;51.494;7.518;2023-03-05T01:43:49;2.40;99.90
45807;DHT22;31507;51.494;7.518;2023-03-05T01:51:26;2.40;99.90
45807;DHT22;31507;51.494;7.518;2023-03-05T01:53:53;2.50;99.90
45807;DHT22;31507;51.494;7.518;2023-03-05T01:56:19;2.50;99.90
45807;DHT22;31507;51.494;7.518;2023-03-05T01:58:46;2.50;99.90
45807;DHT22;31507;51.494;7.518;2023-03-05T02:01:11;2.50;99.90
45807;DHT22;31507;51.494;7.518;2023-03-05T02:03:38;2.50;99.90
45807;DHT22;31507;51.494;7.518;2023-03-05T02:06:04;2.60;99.90
45807;DHT22;31507;51.494;7.518;2023-03-05T02:08:29;2.60;99.90
45807;DHT22;31507;51.494;7.518;2023-03-05T02:10:55;2.60;99.90
45807;DHT22;31507;51.494;7.518;2023-03-05T02:13:27;2.60;99.90
45807;DHT22;31507;51.494;7.518;2023-03-05T02:15:55;2.60;99.90
45807;DHT22;31507;51.494;7.518;2023-03-05T02:18:22;2.60;99.90
45807;DHT22;31507;51.494;7.518;2023-03-05T02:20:51;2.60;99.90
45807;DHT22;31507;51.494;7.518;2023-03-05T02:23:19;2.60;99.90
45807;DHT22;31507;51.494;7.518;2023-03-05T02:25:46;2.60;99.90
45807;DHT22;31507;51.494;7.518;2023-03-05T02:28:48;2.60;99.90
45807;DHT22;31507;51.494;7.518;2023-03-05T02:31:19;2.50;99.90
45807;DHT22;31507;51.494;7.518;2023-03-05T02:33:46;2.50;99.90
45807;DHT22;31507;51.494;7.518;2023-03-05T02:36:12;2.50;99.90
45807;DHT22;31507;51.494;7.518;2023-03-05T02:38:39;2.50;99.90
45807;DHT22;31507;51.494;7.518;2023-03-05T02:41:05;2.50;99.90
45807;DHT22;31507;51.494;7.518;2023-03-05T02:43:30;2.40;99.90
45807;DHT22;31507;51.494;7.518;2023-03-05T02:45:56;2.40;99.90
45807;DHT22;31507;51.494;7.518;2023-03-05T02:48:21;2.40;99.90
45807;DHT22;31507;51.494;7.518;2023-03-05T02:50:47;2.40;99.90
45807;DHT22;31507;51.494;7.518;2023-03-05T02:53:13;2.40;99.90
45807;DHT22;31507;51.494;7.518;2023-03-05T02:55:39;2.40;99.90
45807;DHT22;31507;51.494;7.518;2023-03-05T02:58:05;2.40;99.90
45807;DHT22;31507;51.494;7.518;2023-03-05T03:00:30;2.40;99.90
45807;DHT22;31507;51.494;7.518;2023-03-05T03:02:56;2.40;99.90
45807;DHT22;31507;51.494;7.518;2023-03-05T03:05:21;2.40;99.90
45807;DHT22;31507;51.494;7.518;2023-03-05T03:07:47;2.40;99.90
45807;DHT22;31507;51.494;7.518;2023-03-05T03:10:13;2.40;99.90
45807;DHT22;31507;51.494;7.518;2023-03-05T03:12:40;2.40;99.90
45807;DHT22;31507;51.494;7.518;2023-03-05T03:15:07;2.40;99.90
45807;DHT22;31507;51.494;7.518;2023-03-05T03:17:35;2.40;99.90
45807;DHT22;31507;51.494;7.518;2023-03-05T03:20:02;2.40;99.90
45807;DHT22;31507;51.494;7.518;2023-03-05T03:22:28;2.40;99.90
45807;DHT22;31507;51.494;7.518;2023-03-05T03:24:54;2.40;99.90
45807;DHT22;31507;51.494;7.518;2023-03-05T03:27:21;2.40;99.90
45807;DHT22;31507;51.494;7.518;2023-03-05T03:29:46;2.40;99.90
45807;DHT22;31507;51.494;7.518;2023-03-05T03:32:12;2.40;99.90
45807;DHT22;31507;51.494;7.518;2023-03-05T03:34:38;2.40;99.90
45807;DHT22;31507;51.494;7.518;2023-03-05T03:37:03;2.40;99.90
45807;DHT22;31507;51.494;7.518;2023-03-05T03:39:29;2.40;99.90
45807;DHT22;31507;51.494;7.518;2023-03-05T03:41:55;2.40;99.90
45807;DHT22;31507;51.494;7.518;2023-03-05T03:44:21;2.40;99.90
45807;DHT22;31507;51.494;7.518;2023-03-05T03:46:48;2.40;99.90
45807;DHT22;31507;51.494;7.518;2023-03-05T03:49:20;2.40;99.90
45807;DHT22;31507;51.494;7.518;2023-03-05T03:51:47;2.40;99.90
45807;DHT22;31507;51.494;7.518;2023-03-05T03:54:14;2.40;99.90
45807;DHT22;31507;51.494;7.518;2023-03-05T03:56:40;2.40;99.90
45807;DHT22;31507;51.494;7.518;2023-03-05T03:59:05;2.30;99.90
45807;DHT22;31507;51.494;7.518;2023-03-05T04:01:31;2.40;99.90
45807;DHT22;31507;51.494;7.518;2023-03-05T04:03:57;2.40;99.90
45807;DHT22;31507;51.494;7.518;2023-03-05T04:06:22;2.40;99.90
45807;DHT22;31507;51.494;7.518;2023-03-05T04:08:48;2.40;99.90
45807;DHT22;31507;51.494;7.518;2023-03-05T04:11:14;2.40;99.90
45807;DHT22;31507;51.494;7.518;2023-03-05T04:13:40;2.40;99.90
45807;DHT22;31507;51.494;7.518;2023-03-05T04:16:06;2.40;99.90
45807;DHT22;31507;51.494;7.518;2023-03-05T04:18:32;2.40;99.90
45807;DHT22;31507;51.494;7.518;2023-03-05T04:20:58;2.50;99.90
45807;DHT22;31507;51.494;7.518;2023-03-05T04:23:23;2.40;99.90
45807;DHT22;31507;51.494;7.518;2023-03-05T04:25:49;2.40;99.90
45807;DHT22;31507;51.494;7.518;2023-03-05T04:28:15;2.40;99.90
45807;DHT22;31507;51.494;7.518;2023-03-05T04:30:42;2.40;99.90
45807;DHT22;31507;51.494;7.518;2023-03-05T04:33:07;2.40;99.90
45807;DHT22;31507;51.494;7.518;2023-03-05T04:35:33;2.40;99.90
45807;DHT22;31507;51.494;7.518;2023-03-05T04:37:59;2.40;99.90
45807;DHT22;31507;51.494;7.518;2023-03-05T04:40:24;2.40;99.90
45807;DHT22;31507;51.494;7.518;2023-03-05T04:42:50;2.30;99.90
45807;DHT22;31507;51.494;7.518;2023-03-05T04:45:15;2.30;99.90
45807;DHT22;31507;51.494;7.518;2023-03-05T04:47:42;2.30;99.90
45807;DHT22;31507;51.494;7.518;2023-03-05T04:50:09;2.30;99.90
45807;DHT22;31507;51.494;7.518;2023-03-05T04:52:39;2.30;99.90
45807;DHT22;31507;51.494;7.518;2023-03-05T04:55:05;2.30;99.90
45807;DHT22;31507;51.494;7.518;2023-03-05T04:57:31;2.30;99.90
45807;DHT22;31507;51.494;7.518;2023-03-05T04:59:57;2.30;99.90
45807;DHT22;31507;51.494;7.518;2023-03-05T05:02:22;2.30;99.90
45807;DHT22;31507;51.494;7.518;2023-03-05T05:04:52;2.30;99.90
45807;DHT22;31507;51.494;7.518;2023-03-05T05:07:17;2.30;99.90
45807;DHT22;31507;51.494;7.518;2023-03-05T05:09:43;2.30;99.90
45807;DHT22;31507;51.494;7.518;2023-03-05T05:12:08;2.30;99.90
45807;DHT22;31507;51.494;7.518;2023-03-05T05:14:35;2.30;99.90
45807;DHT22;31507;51.494;7.518;2023-03-05T05:17:01;2.30;99.90
45807;DHT22;31507;51.494;7.518;2023-03-05T05:19:30;2.30;99.90
45807;DHT22;31507;51.494;7.518;2023-03-05T05:21:56;2.30;99.90
45807;DHT22;31507;51.494;7.518;2023-03-05T05:24:21;2.30;99.90
45807;DHT22;31507;51.494;7.518;2023-03-05T05:26:47;2.30;99.90
45807;DHT22;31507;51.494;7.518;2023-03-05T05:29:13;2.30;99.90
45807;DHT22;31507;51.494;7.518;2023-03-05T05:31:38;2.30;99.90
45807;DHT22;31507;51.494;7.518;2023-03-05T05:34:04;2.30;99.90
45807;DHT22;31507;51.494;7.518;2023-03-05T05:36:29;2.30;99.90
45807;DHT22;31507;51.494;7.518;2023-03-05T05:38:55;2.30;99.90
45807;DHT22;31507;51.494;7.518;2023-03-05T05:41:21;2.30;99.90
45807;DHT22;31507;51.494;7.518;2023-03-05T05:43:47;2.30;99.90
45807;DHT22;31507;51.494;7.518;2023-03-05T05:46:18;2.20;99.90
45807;DHT22;31507;51.494;7.518;2023-03-05T05:48:44;2.20;99.90
45807;DHT22;31507;51.494;7.518;2023-03-05T05:51:19;2.20;99.90
45807;DHT22;31507;51.494;7.518;2023-03-05T05:53:45;2.20;99.90
45807;DHT22;31507;51.494;7.518;2023-03-05T05:56:13;2.20;99.90
45807;DHT22;31507;51.494;7.518;2023-03-05T05:58:43;2.20;99.90
45807;DHT22;31507;51.494;7.518;2023-03-05T06:01:23;2.20;99.90
45807;DHT22;31507;51.494;7.518;2023-03-05T06:03:49;2.10;99.90
45807;DHT22;31507;51.494;7.518;2023-03-05T06:06:17;2.10;99.90
45807;DHT22;31507;51.494;7.518;2023-03-05T06:08:43;2.10;99.90
45807;DHT22;31507;51.494;7.518;2023-03-05T06:11:08;2.10;99.90
45807;DHT22;31507;51.494;7.518;2023-03-05T06:13:34;2.10;99.90
45807;DHT22;31507;51.494;7.518;2023-03-05T06:16:03;2.10;99.90
45807;DHT22;31507;51.494;7.518;2023-03-05T06:18:30;2.10;99.90
45807;DHT22;31507;51.494;7.518;2023-03-05T06:20:56;2.10;99.90
45807;DHT22;31507;51.494;7.518;2023-03-05T06:23:23;2.10;99.90
45807;DHT22;31507;51.494;7.518;2023-03-05T06:25:49;2.10;99.90
45807;DHT22;31507;51.494;7.518;2023-03-05T06:28:14;2.10;99.90
45807;DHT22;31507;51.494;7.518;2023-03-05T06:30:41;2.10;99.90
45807;DHT22;31507;51.494;7.518;2023-03-05T06:33:06;2.10;99.90
45807;DHT22;31507;51.494;7.518;2023-03-05T06:35:32;2.10;99.90
45807;DHT22;31507;51.494;7.518;2023-03-05T06:37:58;2.10;99.90
45807;DHT22;31507;51.494;7.518;2023-03-05T06:40:24;2.20;99.90
45807;DHT22;31507;51.494;7.518;2023-03-05T06:42:49;2.20;99.90
45807;DHT22;31507;51.494;7.518;2023-03-05T06:45:15;2.30;99.90
45807;DHT22;31507;51.494;7.518;2023-03-05T06:47:41;2.30;99.90
45807;DHT22;31507;51.494;7.518;2023-03-05T06:50:07;2.30;99.90
45807;DHT22;31507;51.494;7.518;2023-03-05T06:52:33;2.30;99.90
45807;DHT22;31507;51.494;7.518;2023-03-05T06:54:59;2.30;99.90
45807;DHT22;31507;51.494;7.518;2023-03-05T06:57:24;2.30;99.90
45807;DHT22;31507;51.494;7.518;2023-03-05T06:59:50;2.30;99.90
45807;DHT22;31507;51.494;7.518;2023-03-05T07:02:15;2.30;99.90
45807;DHT22;31507;51.494;7.518;2023-03-05T07:04:43;2.30;99.90
45807;DHT22;31507;51.494;7.518;2023-03-05T07:07:09;2.20;99.90
45807;DHT22;31507;51.494;7.518;2023-03-05T07:09:34;2.10;99.90
45807;DHT22;31507;51.494;7.518;2023-03-05T07:12:10;2.00;99.90
45807;DHT22;31507;51.494;7.518;2023-03-05T07:14:37;2.10;99.90
45807;DHT22;31507;51.494;7.518;2023-03-05T07:17:05;2.00;99.90
45807;DHT22;31507;51.494;7.518;2023-03-05T07:19:31;2.00;99.90
45807;DHT22;31507;51.494;7.518;2023-03-05T07:21:57;2.10;99.90
45807;DHT22;31507;51.494;7.518;2023-03-05T07:24:22;2.00;99.90
45807;DHT22;31507;51.494;7.518;2023-03-05T07:26:53;2.00;99.90
45807;DHT22;31507;51.494;7.518;2023-03-05T07:29:19;2.00;99.90
45807;DHT22;31507;51.494;7.518;2023-03-05T07:31:44;2.00;99.90
45807;DHT22;31507;51.494;7.518;2023-03-05T07:34:10;2.00;99.90
45807;DHT22;31507;51.494;7.518;2023-03-05T07:36:35;2.10;99.90
45807;DHT22;31507;51.494;7.518;2023-03-05T07:39:03;2.10;99.90
45807;DHT22;31507;51.494;7.518;2023-03-05T07:41:31;2.10;99.90
45807;DHT22;31507;51.494;7.518;2023-03-05T07:43:57;2.10;99.90
45807;DHT22;31507;51.494;7.518;2023-03-05T07:46:26;2.10;99.90
45807;DHT22;31507;51.494;7.518;2023-03-05T07:48:52;2.00;99.90
45807;DHT22;31507;51.494;7.518;2023-03-05T07:51:22;2.00;99.90
45807;DHT22;31507;51.494;7.518;2023-03-05T07:53:50;2.00;99.90
45807;DHT22;31507;51.494;7.518;2023-03-05T07:56:30;2.00;99.90
45807;DHT22;31507;51.494;7.518;2023-03-05T07:58:57;2.10;99.90
45807;DHT22;31507;51.494;7.518;2023-03-05T08:01:23;2.30;99.90
45807;DHT22;31507;51.494;7.518;2023-03-05T08:03:49;2.40;99.90
45807;DHT22;31507;51.494;7.518;2023-03-05T08:06:14;2.50;99.90
45807;DHT22;31507;51.494;7.518;2023-03-05T08:08:40;2.60;99.90
45807;DHT22;31507;51.494;7.518;2023-03-05T08:11:08;2.60;99.90
45807;DHT22;31507;51.494;7.518;2023-03-05T08:13:35;2.70;99.90
45807;DHT22;31507;51.494;7.518;2023-03-05T08:16:09;2.70;99.90
45807;DHT22;31507;51.494;7.518;2023-03-05T08:18:36;2.70;99.90
45807;DHT22;31507;51.494;7.518;2023-03-05T08:21:02;2.70;99.90
45807;DHT22;31507;51.494;7.518;2023-03-05T08:23:28;2.80;99.90
45807;DHT22;31507;51.494;7.518;2023-03-05T08:25:54;2.80;99.90
45807;DHT22;31507;51.494;7.518;2023-03-05T08:28:20;2.80;99.90
45807;DHT22;31507;51.494;7.518;2023-03-05T08:30:47;2.70;99.90
45807;DHT22;31507;51.494;7.518;2023-03-05T08:33:14;2.80;99.90
45807;DHT22;31507;51.494;7.518;2023-03-05T08:35:39;2.80;99.90
45807;DHT22;31507;51.494;7.518;2023-03-05T08:38:05;2.80;99.90
45807;DHT22;31507;51.494;7.518;2023-03-05T08:40:31;2.90;99.90
45807;DHT22;31507;51.494;7.518;2023-03-05T08:42:57;2.90;99.90
45807;DHT22;31507;51.494;7.518;2023-03-05T08:45:25;3.00;99.90
45807;DHT22;31507;51.494;7.518;2023-03-05T08:47:52;3.10;99.90
45807;DHT22;31507;51.494;7.518;2023-03-05T08:50:18;3.00;99.90
45807;DHT22;31507;51.494;7.518;2023-03-05T08:52:46;3.00;99.90
45807;DHT22;31507;51.494;7.518;2023-03-05T08:55:12;3.00;99.90
45807;DHT22;31507;51.494;7.518;2023-03-05T08:57:37;3.10;99.90
45807;DHT22;31507;51.494;7.518;2023-03-05T09:00:03;3.10;99.90
45807;DHT22;31507;51.494;7.518;2023-03-05T09:02:29;3.10;99.90
45807;DHT22;31507;51.494;7.518;2023-03-05T09:04:55;3.10;99.90
45807;DHT22;31507;51.494;7.518;2023-03-05T09:07:21;3.10;99.90
45807;DHT22;31507;51.494;7.518;2023-03-05T09:09:46;3.20;99.90
45807;DHT22;31507;51.494;7.518;2023-03-05T09:12:12;3.30;99.90
45807;DHT22;31507;51.494;7.518;2023-03-05T09:14:40;3.50;99.90
45807;DHT22;31507;51.494;7.518;2023-03-05T09:17:07;3.50;99.90
45807;DHT22;31507;51.494;7.518;2023-03-05T09:19:33;3.50;99.90
45807;DHT22;31507;51.494;7.518;2023-03-05T09:21:58;3.60;99.90
45807;DHT22;31507;51.494;7.518;2023-03-05T09:24:24;3.50;99.90
45807;DHT22;31507;51.494;7.518;2023-03-05T09:26:50;3.50;99.90
45807;DHT22;31507;51.494;7.518;2023-03-05T09:29:16;3.50;99.90
45807;DHT22;31507;51.494;7.518;2023-03-05T09:31:41;3.40;99.90
45807;DHT22;31507;51.494;7.518;2023-03-05T09:34:10;3.40;99.90
45807;DHT22;31507;51.494;7.518;2023-03-05T09:36:36;3.30;99.90
45807;DHT22;31507;51.494;7.518;2023-03-05T09:39:02;3.30;99.90
45807;DHT22;31507;51.494;7.518;2023-03-05T09:42:00;3.30;99.90
45807;DHT22;31507;51.494;7.518;2023-03-05T09:44:39;3.50;99.90
45807;DHT22;31507;51.494;7.518;2023-03-05T09:47:38;3.50;99.90
45807;DHT22;31507;51.494;7.518;2023-03-05T09:50:31;3.40;99.90
45807;DHT22;31507;51.494;7.518;2023-03-05T09:56:12;3.30;99.90
45807;DHT22;31507;51.494;7.518;2023-03-05T09:58:42;3.20;99.90
45807;DHT22;31507;51.494;7.518;2023-03-05T10:01:14;3.10;99.90
45807;DHT22;31507;51.494;7.518;2023-03-05T10:07:11;3.10;99.90
45807;DHT22;31507;51.494;7.518;2023-03-05T10:09:44;3.10;99.90
45807;DHT22;31507;51.494;7.518;2023-03-05T10:14:59;3.10;99.90
45807;DHT22;31507;51.494;7.518;2023-03-05T10:20:19;3.10;99.90
45807;DHT22;31507;51.494;7.518;2023-03-05T10:23:03;3.00;99.90
45807;DHT22;31507;51.494;7.518;2023-03-05T10:25:57;2.80;99.90
45807;DHT22;31507;51.494;7.518;2023-03-05T10:28:34;2.70;99.90
45807;DHT22;31507;51.494;7.518;2023-03-05T10:31:26;2.60;99.90
45807;DHT22;31507;51.494;7.518;2023-03-05T10:34:29;2.70;99.90
45807;DHT22;31507;51.494;7.518;2023-03-05T10:37:32;2.80;99.90
45807;DHT22;31507;51.494;7.518;2023-03-05T10:42:59;3.20;99.90
45807;DHT22;31507;51.494;7.518;2023-03-05T10:45:28;3.30;99.90
45807;DHT22;31507;51.494;7.518;2023-03-05T10:48:24;3.50;99.90
45807;DHT22;31507;51.494;7.518;2023-03-05T10:50:54;3.60;99.90
45807;DHT22;31507;51.494;7.518;2023-03-05T10:55:59;3.50;99.90
45807;DHT22;31507;51.494;7.518;2023-03-05T10:58:26;3.40;99.90
45807;DHT22;31507;51.494;7.518;2023-03-05T11:01:04;3.40;99.90
45807;DHT22;31507;51.494;7.518;2023-03-05T11:06:27;3.30;99.90
45807;DHT22;31507;51.494;7.518;2023-03-05T11:08:53;3.40;99.90
45807;DHT22;31507;51.494;7.518;2023-03-05T11:11:21;3.30;99.90
45807;DHT22;31507;51.494;7.518;2023-03-05T11:14:01;3.30;99.90
45807;DHT22;31507;51.494;7.518;2023-03-05T11:16:29;3.20;99.90
45807;DHT22;31507;51.494;7.518;2023-03-05T11:21:43;3.30;99.90
45807;DHT22;31507;51.494;7.518;2023-03-05T11:26:34;3.60;99.90
45807;DHT22;31507;51.494;7.518;2023-03-05T11:29:02;3.90;99.90
45807;DHT22;31507;51.494;7.518;2023-03-05T11:31:31;4.20;99.90
45807;DHT22;31507;51.494;7.518;2023-03-05T11:34:04;4.50;99.90
45807;DHT22;31507;51.494;7.518;2023-03-05T11:36:34;4.60;99.90
45807;DHT22;31507;51.494;7.518;2023-03-05T11:39:15;4.60;99.90
45807;DHT22;31507;51.494;7.518;2023-03-05T11:41:58;4.70;99.90
45807;DHT22;31507;51.494;7.518;2023-03-05T11:44:46;4.80;99.90
45807;DHT22;31507;51.494;7.518;2023-03-05T11:49:49;4.80;99.90
45807;DHT22;31507;51.494;7.518;2023-03-05T11:52:21;4.80;99.90
45807;DHT22;31507;51.494;7.518;2023-03-05T11:55:01;4.70;99.90
45807;DHT22;31507;51.494;7.518;2023-03-05T11:57:35;4.70;99.90
45807;DHT22;31507;51.494;7.518;2023-03-05T12:00:06;4.50;99.90
45807;DHT22;31507;51.494;7.518;2023-03-05T12:02:37;4.40;99.90
45807;DHT22;31507;51.494;7.518;2023-03-05T12:05:05;4.40;99.90
45807;DHT22;31507;51.494;7.518;2023-03-05T12:07:40;4.40;99.90
45807;DHT22;31507;51.494;7.518;2023-03-05T12:10:15;4.40;99.90
45807;DHT22;31507;51.494;7.518;2023-03-05T12:23:13;5.40;99.90
45807;DHT22;31507;51.494;7.518;2023-03-05T12:25:50;5.40;99.90
45807;DHT22;31507;51.494;7.518;2023-03-05T12:31:35;5.50;99.90
45807;DHT22;31507;51.494;7.518;2023-03-05T12:47:36;5.50;99.90
45807;DHT22;31507;51.494;7.518;2023-03-05T12:50:03;5.40;99.90
45807;DHT22;31507;51.494;7.518;2023-03-05T12:52:32;5.30;99.90
45807;DHT22;31507;51.494;7.518;2023-03-05T12:55:16;5.10;99.90
45807;DHT22;31507;51.494;7.518;2023-03-05T12:57:43;5.10;99.90
45807;DHT22;31507;51.494;7.518;2023-03-05T13:00:26;5.10;99.90
45807;DHT22;31507;51.494;7.518;2023-03-05T13:02:55;5.10;99.90
45807;DHT22;31507;51.494;7.518;2023-03-05T13:05:32;5.00;99.90
45807;DHT22;31507;51.494;7.518;2023-03-05T13:08:22;5.00;99.90
45807;DHT22;31507;51.494;7.518;2023-03-05T13:10:59;5.10;99.90
45807;DHT22;31507;51.494;7.518;2023-03-05T13:13:26;5.20;99.90
45807;DHT22;31507;51.494;7.518;2023-03-05T13:15:53;5.30;99.90
45807;DHT22;31507;51.494;7.518;2023-03-05T13:18:23;5.40;99.90
45807;DHT22;31507;51.494;7.518;2023-03-05T13:23:29;5.20;99.90
45807;DHT22;31507;51.494;7.518;2023-03-05T13:26:12;5.20;99.90
45807;DHT22;31507;51.494;7.518;2023-03-05T13:28:40;5.20;99.90
45807;DHT22;31507;51.494;7.518;2023-03-05T13:31:24;5.20;99.90
45807;DHT22;31507;51.494;7.518;2023-03-05T13:33:53;5.30;99.90
45807;DHT22;31507;51.494;7.518;2023-03-05T13:36:21;5.40;99.90
45807;DHT22;31507;51.494;7.518;2023-03-05T13:38:48;5.40;99.90
45807;DHT22;31507;51.494;7.518;2023-03-05T13:41:17;5.60;99.90
45807;DHT22;31507;51.494;7.518;2023-03-05T13:43:49;5.80;99.90
45807;DHT22;31507;51.494;7.518;2023-03-05T13:48:48;6.10;99.90
45807;DHT22;31507;51.494;7.518;2023-03-05T13:51:13;6.10;99.90
45807;DHT22;31507;51.494;7.518;2023-03-05T13:53:39;6.20;99.90
45807;DHT22;31507;51.494;7.518;2023-03-05T13:56:11;6.40;99.90
45807;DHT22;31507;51.494;7.518;2023-03-05T13:58:50;6.60;99.90
45807;DHT22;31507;51.494;7.518;2023-03-05T14:01:39;6.70;99.90
45807;DHT22;31507;51.494;7.518;2023-03-05T14:04:16;6.90;99.90
45807;DHT22;31507;51.494;7.518;2023-03-05T14:06:50;7.00;99.90
45807;DHT22;31507;51.494;7.518;2023-03-05T14:09:20;6.90;99.90
45807;DHT22;31507;51.494;7.518;2023-03-05T14:12:00;7.10;99.90
45807;DHT22;31507;51.494;7.518;2023-03-05T14:14:28;6.70;99.90
45807;DHT22;31507;51.494;7.518;2023-03-05T14:16:55;6.80;99.90
45807;DHT22;31507;51.494;7.518;2023-03-05T14:19:38;7.00;99.90
45807;DHT22;31507;51.494;7.518;2023-03-05T14:22:05;7.10;99.90
45807;DHT22;31507;51.494;7.518;2023-03-05T14:24:31;7.00;99.90
45807;DHT22;31507;51.494;7.518;2023-03-05T14:27:00;6.90;99.90
45807;DHT22;31507;51.494;7.518;2023-03-05T14:29:30;6.80;99.90
45807;DHT22;31507;51.494;7.518;2023-03-05T14:32:00;6.90;99.90
45807;DHT22;31507;51.494;7.518;2023-03-05T14:34:32;6.90;99.90
45807;DHT22;31507;51.494;7.518;2023-03-05T14:37:02;6.60;99.90
45807;DHT22;31507;51.494;7.518;2023-03-05T14:39:32;6.50;99.90
45807;DHT22;31507;51.494;7.518;2023-03-05T14:42:30;6.30;99.90
45807;DHT22;31507;51.494;7.518;2023-03-05T14:44:59;6.10;99.90
45807;DHT22;31507;51.494;7.518;2023-03-05T14:47:27;5.90;99.90
45807;DHT22;31507;51.494;7.518;2023-03-05T14:49:53;5.90;99.90
45807;DHT22;31507;51.494;7.518;2023-03-05T14:52:21;5.90;99.90
45807;DHT22;31507;51.494;7.518;2023-03-05T14:54:48;5.70;99.90
45807;DHT22;31507;51.494;7.518;2023-03-05T14:57:17;5.70;99.90
45807;DHT22;31507;51.494;7.518;2023-03-05T14:59:44;5.60;99.90
45807;DHT22;31507;51.494;7.518;2023-03-05T15:02:15;5.60;99.90
45807;DHT22;31507;51.494;7.518;2023-03-05T15:04:41;5.60;99.90
45807;DHT22;31507;51.494;7.518;2023-03-05T15:07:12;5.50;99.90
45807;DHT22;31507;51.494;7.518;2023-03-05T15:09:40;5.40;99.90
45807;DHT22;31507;51.494;7.518;2023-03-05T15:12:06;5.40;99.90
45807;DHT22;31507;51.494;7.518;2023-03-05T15:14:31;5.40;99.90
45807;DHT22;31507;51.494;7.518;2023-03-05T15:16:57;5.40;99.90
45807;DHT22;31507;51.494;7.518;2023-03-05T15:19:23;5.50;99.90
45807;DHT22;31507;51.494;7.518;2023-03-05T15:21:49;5.50;99.90
45807;DHT22;31507;51.494;7.518;2023-03-05T15:24:14;5.50;99.90
45807;DHT22;31507;51.494;7.518;2023-03-05T15:26:40;5.50;99.90
45807;DHT22;31507;51.494;7.518;2023-03-05T15:29:06;5.50;99.90
45807;DHT22;31507;51.494;7.518;2023-03-05T15:31:31;5.60;99.90
45807;DHT22;31507;51.494;7.518;2023-03-05T15:34:03;5.60;99.90
45807;DHT22;31507;51.494;7.518;2023-03-05T15:36:29;5.60;99.90
45807;DHT22;31507;51.494;7.518;2023-03-05T15:38:54;5.50;99.90
45807;DHT22;31507;51.494;7.518;2023-03-05T15:41:20;5.40;99.90
45807;DHT22;31507;51.494;7.518;2023-03-05T15:43:46;5.30;99.90
45807;DHT22;31507;51.494;7.518;2023-03-05T15:46:12;5.30;99.90
45807;DHT22;31507;51.494;7.518;2023-03-05T15:48:37;5.20;99.90
45807;DHT22;31507;51.494;7.518;2023-03-05T15:51:06;5.10;99.90
45807;DHT22;31507;51.494;7.518;2023-03-05T15:53:32;5.10;99.90
45807;DHT22;31507;51.494;7.518;2023-03-05T15:55:57;5.10;99.90
45807;DHT22;31507;51.494;7.518;2023-03-05T15:58:23;5.10;99.90
45807;DHT22;31507;51.494;7.518;2023-03-05T16:00:48;5.00;99.90
45807;DHT22;31507;51.494;7.518;2023-03-05T16:03:14;5.00;99.90
45807;DHT22;31507;51.494;7.518;2023-03-05T16:05:40;5.00;99.90
45807;DHT22;31507;51.494;7.518;2023-03-05T16:08:06;4.90;99.90
45807;DHT22;31507;51.494;7.518;2023-03-05T16:10:32;4.90;99.90
45807;DHT22;31507;51.494;7.518;2023-03-05T16:13:07;4.80;99.90
45807;DHT22;31507;51.494;7.518;2023-03-05T16:15:34;4.80;99.90
45807;DHT22;31507;51.494;7.518;2023-03-05T16:18:03;4.80;99.90
45807;DHT22;31507;51.494;7.518;2023-03-05T16:20:30;4.70;99.90
45807;DHT22;31507;51.494;7.518;2023-03-05T16:22:55;4.60;99.90
45807;DHT22;31507;51.494;7.518;2023-03-05T16:25:21;4.60;99.90
45807;DHT22;31507;51.494;7.518;2023-03-05T16:27:47;4.60;99.90
45807;DHT22;31507;51.494;7.518;2023-03-05T16:30:16;4.50;99.90
45807;DHT22;31507;51.494;7.518;2023-03-05T16:32:42;4.50;99.90
45807;DHT22;31507;51.494;7.518;2023-03-05T16:35:08;4.40;99.90
45807;DHT22;31507;51.494;7.518;2023-03-05T16:37:36;4.40;99.90
45807;DHT22;31507;51.494;7.518;2023-03-05T16:40:03;4.30;99.90
45807;DHT22;31507;51.494;7.518;2023-03-05T16:42:29;4.20;99.90
45807;DHT22;31507;51.494;7.518;2023-03-05T16:44:54;4.20;99.90
45807;DHT22;31507;51.494;7.518;2023-03-05T16:47:21;4.10;99.90
45807;DHT22;31507;51.494;7.518;2023-03-05T16:49:46;4.10;99.90
45807;DHT22;31507;51.494;7.518;2023-03-05T16:52:12;4.00;99.90
45807;DHT22;31507;51.494;7.518;2023-03-05T16:54:38;4.10;99.90
45807;DHT22;31507;51.494;7.518;2023-03-05T16:57:06;4.10;99.90
45807;DHT22;31507;51.494;7.518;2023-03-05T16:59:33;4.10;99.90